Time;durP1;ratioP1;P1;durP2;ratioP2;P2;SDS_P1;SDS_P2;PMS_P1;PMS_P2;Temp;Humidity;BMP_temperature;BMP_pressure;BME280_temperature;BME280_humidity;BME280_pressure;Samples;Min_cycle;Max_cycle;Signal;HPM_P1;HPM_P2
2022/04/06 00:02:18;;;;;;;2.50;1.27;;;13.60;52.40;;;;;;2334340;53;20984;-66
2022/04/06 00:04:44;;;;;;;3.30;1.50;;;13.60;52.40;;;;;;2330076;53;20953;-66
2022/04/06 00:07:12;;;;;;;3.28;1.40;;;13.60;52.40;;;;;;2329380;53;22078;-66
2022/04/06 00:09:39;;;;;;;2.85;1.35;;;13.60;52.40;;;;;;2330050;54;21032;-66
2022/04/06 00:12:10;;;;;;;2.67;1.25;;;13.60;52.40;;;;;;2330512;54;21143;-66
2022/04/06 00:14:37;;;;;;;2.72;1.33;;;13.60;52.50;;;;;;2329852;54;20952;-66
2022/04/06 00:17:07;;;;;;;3.33;1.48;;;13.60;52.50;;;;;;2328966;54;20992;-66
2022/04/06 00:19:34;;;;;;;3.47;1.20;;;13.60;52.50;;;;;;2330091;54;20976;-66
2022/04/06 00:22:00;;;;;;;2.67;1.33;;;13.60;52.50;;;;;;2326607;54;20932;-66
2022/04/06 00:24:27;;;;;;;2.12;1.15;;;13.60;52.60;;;;;;2329704;54;21124;-66
2022/04/06 00:26:54;;;;;;;2.45;1.30;;;13.60;52.60;;;;;;2329630;54;20937;-66
2022/04/06 00:29:20;;;;;;;3.17;1.42;;;13.60;52.60;;;;;;2334191;53;20936;-66
2022/04/06 00:31:48;;;;;;;3.25;1.42;;;13.60;52.60;;;;;;2574027;53;21571;-66
2022/04/06 00:34:15;;;;;;;2.90;1.50;;;13.60;52.60;;;;;;2330541;54;20947;-66
2022/04/06 00:36:41;;;;;;;3.42;1.70;;;13.50;52.60;;;;;;2366282;53;20948;-66
2022/04/06 00:39:08;;;;;;;3.42;1.62;;;13.50;52.60;;;;;;2318612;53;20932;-66
2022/04/06 00:41:35;;;;;;;3.37;1.73;;;13.50;52.50;;;;;;2368581;53;21021;-66
2022/04/06 00:44:17;;;;;;;3.37;1.83;;;13.50;52.60;;;;;;2334288;53;21372;-66
2022/04/06 00:46:44;;;;;;;3.30;1.87;;;13.50;53.30;;;;;;2333671;53;21052;-66
2022/04/06 00:49:13;;;;;;;3.62;1.90;;;13.50;52.50;;;;;;2333315;53;20936;-66
2022/04/06 00:51:44;;;;;;;4.55;1.85;;;13.60;52.60;;;;;;2574144;53;21004;-66
2022/04/06 00:54:12;;;;;;;2.70;1.60;;;13.50;52.60;;;;;;2332530;53;20960;-66
2022/04/06 00:56:39;;;;;;;3.83;1.87;;;13.50;52.50;;;;;;2329343;53;20988;-66
2022/04/06 00:59:07;;;;;;;5.18;2.33;;;13.50;52.50;;;;;;2334335;53;20973;-66
2022/04/06 01:01:34;;;;;;;5.15;2.28;;;13.60;52.60;;;;;;2573980;53;21048;-66
2022/04/06 01:04:00;;;;;;;3.87;2.10;;;13.60;52.60;;;;;;2330234;54;21909;-67
2022/04/06 01:06:28;;;;;;;3.87;2.10;;;13.50;52.50;;;;;;2330626;54;21459;-66
2022/04/06 01:08:54;;;;;;;3.67;1.95;;;13.50;52.50;;;;;;2332697;53;20933;-66
2022/04/06 01:11:20;;;;;;;4.05;2.10;;;13.60;52.60;;;;;;2335822;53;20984;-66
2022/04/06 01:13:47;;;;;;;5.72;2.12;;;13.60;52.60;;;;;;2334142;53;21003;-66
2022/04/06 01:16:17;;;;;;;3.60;2.12;;;13.60;52.50;;;;;;2308611;53;20951;-66
2022/04/06 01:18:44;;;;;;;3.35;2.08;;;13.60;52.60;;;;;;2333415;53;21025;-65
2022/04/06 01:21:12;;;;;;;4.00;1.83;;;13.60;52.50;;;;;;2329615;54;21884;-66
2022/04/06 01:23:41;;;;;;;4.55;2.17;;;13.60;52.50;;;;;;2330581;53;22083;-66
2022/04/06 01:26:09;;;;;;;3.58;2.00;;;13.70;52.60;;;;;;2310788;55;21078;-66
2022/04/06 01:28:36;;;;;;;3.72;1.95;;;13.70;52.50;;;;;;2313715;55;20993;-66
2022/04/06 01:31:03;;;;;;;3.83;2.10;;;13.70;52.50;;;;;;2434975;53;20932;-66
2022/04/06 01:33:30;;;;;;;4.75;2.08;;;13.70;52.50;;;;;;2347852;53;20936;-66
2022/04/06 01:35:57;;;;;;;4.57;2.45;;;13.70;52.50;;;;;;2333018;53;21031;-66
2022/04/06 01:38:24;;;;;;;4.75;1.90;;;13.70;52.50;;;;;;2330054;53;21961;-66
2022/04/06 01:40:51;;;;;;;3.87;1.95;;;13.80;52.60;;;;;;2330343;54;21042;-66
2022/04/06 01:43:20;;;;;;;3.83;2.12;;;13.80;52.50;;;;;;2334522;53;20940;-66
2022/04/06 01:45:46;;;;;;;3.80;2.08;;;13.70;52.50;;;;;;2325632;53;21078;-66
2022/04/06 01:48:16;;;;;;;5.15;2.65;;;13.80;52.50;;;;;;2363697;52;20973;-66
2022/04/06 01:53:30;;;;;;;4.30;2.47;;;13.80;52.50;;;;;;2331948;53;21000;-66
2022/04/06 01:55:59;;;;;;;3.85;2.45;;;13.80;52.50;;;;;;2327159;53;20943;-66
2022/04/06 01:58:26;;;;;;;5.12;2.33;;;13.80;52.50;;;;;;2330814;54;20924;-66
2022/04/06 02:00:52;;;;;;;4.65;2.80;;;13.80;52.50;;;;;;2333964;53;20925;-66
2022/04/06 02:03:20;;;;;;;5.10;2.53;;;13.80;52.50;;;;;;2329501;53;20944;-66
2022/04/06 02:05:46;;;;;;;4.78;2.80;;;13.80;52.50;;;;;;2573922;53;21623;-66
2022/04/06 02:08:15;;;;;;;5.05;2.35;;;13.80;52.50;;;;;;2330518;54;21068;-66
2022/04/06 02:10:41;;;;;;;5.93;2.95;;;13.80;52.50;;;;;;2574793;53;20941;-66
2022/04/06 02:13:08;;;;;;;5.03;2.80;;;13.90;52.60;;;;;;2330012;54;20960;-66
2022/04/06 02:15:37;;;;;;;4.80;2.47;;;13.90;52.60;;;;;;2330391;54;22004;-66
2022/04/06 02:18:04;;;;;;;5.00;3.00;;;13.80;52.50;;;;;;2330168;54;21071;-66
2022/04/06 02:20:30;;;;;;;4.40;2.58;;;13.90;52.60;;;;;;2574866;53;20964;-66
2022/04/06 02:22:56;;;;;;;4.93;2.92;;;13.90;52.60;;;;;;2335694;53;21966;-66
2022/04/06 02:25:23;;;;;;;4.03;2.40;;;13.90;52.60;;;;;;2307372;53;20925;-66
2022/04/06 02:27:50;;;;;;;7.87;2.33;;;13.90;52.60;;;;;;2333617;54;21434;-66
2022/04/06 02:30:17;;;;;;;3.85;1.85;;;13.90;52.60;;;;;;2329868;53;20956;-66
2022/04/06 02:32:45;;;;;;;4.40;2.42;;;13.90;52.50;;;;;;2337002;53;20988;-66
2022/04/06 02:35:12;;;;;;;4.05;2.40;;;14.00;52.60;;;;;;2321549;53;21028;-66
2022/04/06 02:37:41;;;;;;;5.55;2.40;;;14.00;52.60;;;;;;2339870;54;21009;-66
2022/04/06 02:40:09;;;;;;;4.50;2.28;;;14.00;52.60;;;;;;2343282;53;20948;-66
2022/04/06 02:42:35;;;;;;;3.85;2.30;;;14.00;52.60;;;;;;2330171;53;20948;-66
2022/04/06 02:45:01;;;;;;;4.12;2.30;;;13.90;52.50;;;;;;2333473;53;21031;-66
2022/04/06 02:47:28;;;;;;;3.87;2.15;;;14.00;52.60;;;;;;2421845;53;21897;-66
2022/04/06 02:49:55;;;;;;;4.37;2.40;;;14.00;52.60;;;;;;2575027;53;22039;-66
2022/04/06 02:52:22;;;;;;;4.32;2.40;;;14.00;52.60;;;;;;2331814;53;21032;-66
2022/04/06 02:54:51;;;;;;;3.45;1.85;;;14.00;52.60;;;;;;2329829;53;21040;-66
2022/04/06 02:57:17;;;;;;;3.45;2.00;;;14.00;52.60;;;;;;2330594;54;21078;-66
2022/04/06 02:59:43;;;;;;;4.60;2.40;;;14.00;52.60;;;;;;2330451;54;21064;-66
2022/04/06 03:02:10;;;;;;;3.50;2.30;;;14.00;52.80;;;;;;2330471;54;21973;-66
2022/04/06 03:04:37;;;;;;;4.15;2.50;;;14.00;52.60;;;;;;2330325;54;21960;-66
2022/04/06 03:07:04;;;;;;;3.58;2.20;;;14.00;52.50;;;;;;2330496;54;20921;-66
2022/04/06 03:09:31;;;;;;;4.55;2.55;;;14.00;52.60;;;;;;2429676;53;21059;-66
2022/04/06 03:11:59;;;;;;;4.37;2.20;;;14.00;52.60;;;;;;2329839;53;21971;-67
2022/04/06 03:14:25;;;;;;;3.92;2.33;;;14.10;52.70;;;;;;2311824;54;21119;-66
2022/04/06 03:16:52;;;;;;;4.43;2.37;;;14.00;52.60;;;;;;2331651;53;20908;-66
2022/04/06 03:19:20;;;;;;;3.75;2.25;;;14.00;52.60;;;;;;2334794;53;21983;-66
2022/04/06 03:21:49;;;;;;;3.92;2.30;;;14.00;52.70;;;;;;2318406;53;21461;-66
2022/04/06 03:24:16;;;;;;;3.30;1.77;;;14.10;52.80;;;;;;2337116;54;20996;-66
2022/04/06 03:26:43;;;;;;;4.68;2.35;;;14.00;52.70;;;;;;2330352;54;21161;-66
2022/04/06 03:29:10;;;;;;;3.92;2.17;;;14.10;52.70;;;;;;2574860;53;20928;-67
2022/04/06 03:31:37;;;;;;;3.90;1.77;;;14.10;52.70;;;;;;2331417;53;20984;-66
2022/04/06 03:34:03;;;;;;;4.85;2.33;;;14.00;52.70;;;;;;2335844;54;20949;-66
2022/04/06 03:36:31;;;;;;;3.60;2.12;;;14.00;52.70;;;;;;2332211;54;21988;-66
2022/04/06 03:39:00;;;;;;;4.03;2.17;;;14.10;52.80;;;;;;2399047;53;21059;-66
2022/04/06 03:41:27;;;;;;;4.15;2.37;;;14.10;52.80;;;;;;2330852;54;20956;-66
2022/04/06 03:43:53;;;;;;;5.30;2.22;;;14.00;52.70;;;;;;2484561;53;21858;-66
2022/04/06 03:46:21;;;;;;;4.15;2.35;;;14.10;52.80;;;;;;2574648;53;21954;-66
2022/04/06 03:48:48;;;;;;;5.55;2.78;;;14.10;52.80;;;;;;2329913;54;20952;-66
2022/04/06 03:51:14;;;;;;;5.43;2.72;;;14.00;52.80;;;;;;2583534;53;21024;-66
2022/04/06 03:53:41;;;;;;;4.45;2.50;;;14.10;52.90;;;;;;2573259;53;20920;-65
2022/04/06 03:56:07;;;;;;;5.25;2.30;;;14.10;52.90;;;;;;2388646;53;20924;-66
2022/04/06 03:58:33;;;;;;;5.07;2.35;;;14.10;52.90;;;;;;2574424;53;20925;-66
2022/04/06 04:01:00;;;;;;;5.15;2.60;;;14.00;52.80;;;;;;2332482;53;20921;-66
2022/04/06 04:03:27;;;;;;;4.45;2.60;;;14.10;52.90;;;;;;2318651;53;21734;-66
2022/04/06 04:05:54;;;;;;;4.12;2.47;;;14.00;52.90;;;;;;2330475;54;21074;-66
2022/04/06 04:08:22;;;;;;;4.57;2.83;;;14.10;53.00;;;;;;2574200;53;21092;-66
2022/04/06 04:10:49;;;;;;;3.65;2.50;;;14.00;52.90;;;;;;2574897;53;21567;-66
2022/04/06 04:13:15;;;;;;;4.35;2.40;;;14.00;53.00;;;;;;2330010;54;20988;-66
2022/04/06 04:15:42;;;;;;;4.47;2.92;;;14.00;53.00;;;;;;2574552;53;20935;-66
2022/04/06 04:18:09;;;;;;;4.37;2.50;;;14.00;53.10;;;;;;2330244;54;21047;-66
2022/04/06 04:20:35;;;;;;;5.45;3.05;;;14.00;53.10;;;;;;2330629;54;22014;-66
2022/04/06 04:23:02;;;;;;;5.30;3.28;;;14.00;53.20;;;;;;2333109;53;21036;-66
2022/04/06 04:25:28;;;;;;;4.68;2.92;;;14.00;53.30;;;;;;2316681;53;21956;-66
2022/04/06 04:27:55;;;;;;;4.53;2.90;;;14.00;53.40;;;;;;2331371;53;21639;-65
2022/04/06 04:30:21;;;;;;;4.40;2.95;;;14.00;53.40;;;;;;2335566;53;21036;-66
2022/04/06 04:32:49;;;;;;;4.30;2.70;;;14.00;53.40;;;;;;2329253;53;20928;-66
2022/04/06 04:35:15;;;;;;;4.75;2.80;;;14.00;53.50;;;;;;2329702;53;21909;-66
2022/04/06 04:37:42;;;;;;;4.37;2.60;;;14.00;53.50;;;;;;2459031;53;21468;-66
2022/04/06 04:40:10;;;;;;;5.28;3.00;;;14.00;53.50;;;;;;2333225;53;20952;-66
2022/04/06 04:42:37;;;;;;;5.37;2.87;;;14.00;53.60;;;;;;2547159;53;21000;-66
2022/04/06 04:45:10;;;;;;;4.80;3.00;;;13.90;53.60;;;;;;2573887;53;20977;-66
2022/04/06 04:47:37;;;;;;;6.82;3.60;;;14.00;53.70;;;;;;2574458;53;21008;-66
2022/04/06 04:50:05;;;;;;;5.03;2.80;;;13.90;53.70;;;;;;2329346;54;20917;-66
2022/04/06 04:52:31;;;;;;;5.35;2.75;;;13.90;53.70;;;;;;2332505;54;20996;-66
2022/04/06 04:54:57;;;;;;;5.95;3.10;;;14.00;53.80;;;;;;2329401;53;20968;-66
2022/04/06 04:57:24;;;;;;;5.50;3.40;;;13.90;53.70;;;;;;2329972;54;20975;-66
2022/04/06 04:59:52;;;;;;;5.57;3.45;;;14.00;53.80;;;;;;2332936;53;20983;-66
2022/04/06 05:02:19;;;;;;;5.22;3.60;;;14.00;53.90;;;;;;2340122;54;20996;-66
2022/04/06 05:04:47;;;;;;;6.25;4.28;;;14.00;53.80;;;;;;2338601;53;20999;-66
2022/04/06 05:07:13;;;;;;;4.75;3.03;;;14.00;53.90;;;;;;2332757;53;20945;-66
2022/04/06 05:09:39;;;;;;;6.72;3.60;;;13.90;53.80;;;;;;2330102;53;21902;-66
2022/04/06 05:12:08;;;;;;;4.20;2.60;;;13.90;53.80;;;;;;2333863;54;21132;-66
2022/04/06 05:14:34;;;;;;;6.20;3.08;;;13.90;53.90;;;;;;2329255;53;22133;-66
2022/04/06 05:17:01;;;;;;;5.97;3.25;;;13.90;53.90;;;;;;2329890;54;21530;-66
2022/04/06 05:19:27;;;;;;;5.78;3.30;;;13.90;54.00;;;;;;2332865;53;21080;-66
2022/04/06 05:21:55;;;;;;;4.40;2.80;;;13.90;54.00;;;;;;2574246;53;20932;-66
2022/04/06 05:24:22;;;;;;;5.22;2.97;;;13.90;54.10;;;;;;2333652;54;20949;-66
2022/04/06 05:26:49;;;;;;;4.32;2.70;;;13.90;54.10;;;;;;2573617;53;20961;-66
2022/04/06 05:29:16;;;;;;;5.60;2.85;;;13.90;54.10;;;;;;2329767;54;21905;-66
2022/04/06 05:31:42;;;;;;;8.82;4.50;;;13.90;54.10;;;;;;2329910;54;20940;-65
2022/04/06 05:34:10;;;;;;;7.50;4.32;;;13.80;54.10;;;;;;2330920;54;20984;-66
2022/04/06 05:36:38;;;;;;;7.87;4.20;;;13.80;54.10;;;;;;2329987;54;20992;-66
2022/04/06 05:39:07;;;;;;;6.40;3.62;;;13.80;54.20;;;;;;2333153;53;20940;-65
2022/04/06 05:41:34;;;;;;;6.30;3.80;;;13.80;54.30;;;;;;2329372;53;21977;-66
2022/04/06 05:44:00;;;;;;;6.15;3.12;;;13.80;54.30;;;;;;2330220;54;20948;-67
2022/04/06 05:46:27;;;;;;;5.07;3.20;;;13.80;54.50;;;;;;2330249;53;21603;-65
2022/04/06 05:48:53;;;;;;;4.97;3.08;;;13.80;54.50;;;;;;2570418;52;21933;-66
2022/04/06 05:51:22;;;;;;;5.93;3.30;;;13.80;54.60;;;;;;2319209;53;20932;-66
2022/04/06 05:53:49;;;;;;;5.75;2.90;;;13.80;54.60;;;;;;2334225;53;21040;-66
2022/04/06 05:56:15;;;;;;;6.03;3.00;;;13.80;54.70;;;;;;2330033;53;20921;-66
2022/04/06 05:58:43;;;;;;;5.30;2.70;;;13.80;54.70;;;;;;2334071;53;21592;-65
2022/04/06 06:01:10;;;;;;;5.28;2.70;;;13.80;54.80;;;;;;2333359;53;21134;-66
2022/04/06 06:03:36;;;;;;;5.28;3.00;;;13.80;54.90;;;;;;2330268;54;20937;-66
2022/04/06 06:06:04;;;;;;;5.07;2.67;;;13.80;54.90;;;;;;2329751;53;20975;-66
2022/04/06 06:08:30;;;;;;;6.18;2.90;;;13.80;54.90;;;;;;2330003;54;20984;-66
2022/04/06 06:10:56;;;;;;;6.70;3.20;;;13.90;55.00;;;;;;2333585;54;21700;-66
2022/04/06 06:13:25;;;;;;;5.78;3.28;;;13.90;55.00;;;;;;2329854;53;20940;-66
2022/04/06 06:15:51;;;;;;;5.40;3.37;;;13.90;55.00;;;;;;2330308;54;20956;-66
2022/04/06 06:18:18;;;;;;;5.70;3.37;;;13.90;55.00;;;;;;2330482;54;21559;-66
2022/04/06 06:20:45;;;;;;;5.82;3.35;;;13.90;55.60;;;;;;2333600;54;21284;-66
2022/04/06 06:23:12;;;;;;;6.28;3.40;;;13.90;55.00;;;;;;2322225;53;21074;-66
2022/04/06 06:25:38;;;;;;;4.68;2.58;;;13.90;55.00;;;;;;2333078;54;21080;-66
2022/04/06 06:28:07;;;;;;;5.05;2.85;;;14.00;55.10;;;;;;2330370;54;21000;-66
2022/04/06 06:30:33;;;;;;;6.03;2.95;;;13.90;55.00;;;;;;2334317;53;21518;-66
2022/04/06 06:33:00;;;;;;;5.22;2.72;;;14.00;55.10;;;;;;2329343;53;21995;-66
2022/04/06 06:35:28;;;;;;;4.57;2.60;;;14.00;55.10;;;;;;2330666;54;21004;-66
2022/04/06 06:37:58;;;;;;;4.72;2.60;;;14.00;55.20;;;;;;2330145;54;20924;-66
2022/04/06 06:40:26;;;;;;;4.43;2.47;;;14.00;55.20;;;;;;2335253;53;21000;-66
2022/04/06 06:42:53;;;;;;;5.70;2.78;;;14.10;55.30;;;;;;2330023;53;20945;-66
2022/04/06 06:45:20;;;;;;;6.00;3.10;;;14.10;55.20;;;;;;2330321;54;20959;-66
2022/04/06 06:47:47;;;;;;;4.82;2.55;;;14.10;55.30;;;;;;2329983;54;20920;-66
2022/04/06 06:50:15;;;;;;;4.60;2.80;;;14.10;55.30;;;;;;2574335;53;20988;-66
2022/04/06 06:52:41;;;;;;;4.53;2.37;;;14.10;55.30;;;;;;2328753;54;21078;-66
2022/04/06 06:55:12;;;;;;;6.80;2.87;;;14.10;55.40;;;;;;2330042;54;21055;-66
2022/04/06 06:57:39;;;;;;;5.85;3.22;;;14.20;55.50;;;;;;2330336;54;20936;-66
2022/04/06 07:00:06;;;;;;;4.62;2.45;;;14.20;55.50;;;;;;2337381;53;21933;-66
2022/04/06 07:02:33;;;;;;;5.25;2.33;;;14.30;55.70;;;;;;2562383;52;20973;-66
2022/04/06 07:04:59;;;;;;;5.85;2.75;;;14.30;55.60;;;;;;2330292;53;21446;-65
2022/04/06 07:07:26;;;;;;;5.30;2.35;;;14.40;55.60;;;;;;2330161;54;22142;-66
2022/04/06 07:09:53;;;;;;;4.97;2.60;;;14.40;55.60;;;;;;2329600;53;21098;-66
2022/04/06 07:12:19;;;;;;;5.93;2.85;;;14.40;55.60;;;;;;2324406;53;21008;-66
2022/04/06 07:14:45;;;;;;;6.57;2.45;;;14.50;55.60;;;;;;2336194;54;21007;-67
2022/04/06 07:17:12;;;;;;;4.55;2.20;;;14.50;55.60;;;;;;2556737;53;21052;-66
2022/04/06 07:19:41;;;;;;;5.25;2.30;;;14.60;55.60;;;;;;2329987;54;20987;-66
2022/04/06 07:22:07;;;;;;;5.00;2.80;;;14.60;55.60;;;;;;2330123;53;20964;-66
2022/04/06 07:24:35;;;;;;;6.35;2.95;;;14.70;55.50;;;;;;2330119;54;20963;-67
2022/04/06 07:27:02;;;;;;;3.92;2.30;;;14.70;55.50;;;;;;2330348;54;20948;-66
2022/04/06 07:29:29;;;;;;;4.62;2.87;;;14.70;55.50;;;;;;2314708;54;20989;-66
2022/04/06 07:31:56;;;;;;;5.05;3.10;;;14.80;55.60;;;;;;2325557;53;21055;-66
2022/04/06 07:34:22;;;;;;;5.07;2.62;;;14.80;55.60;;;;;;2323067;53;20947;-66
2022/04/06 07:36:49;;;;;;;4.05;1.92;;;14.90;55.50;;;;;;2325451;53;21009;-66
2022/04/06 07:39:15;;;;;;;3.67;1.90;;;14.90;55.40;;;;;;2330428;54;20960;-66
2022/04/06 07:41:42;;;;;;;3.83;2.00;;;14.90;55.50;;;;;;2330861;53;20980;-66
2022/04/06 07:44:09;;;;;;;4.53;2.70;;;15.00;55.50;;;;;;2333585;54;20965;-66
2022/04/06 07:46:35;;;;;;;4.35;2.28;;;15.10;55.60;;;;;;2327104;53;21996;-66
2022/04/06 07:49:02;;;;;;;3.95;2.40;;;15.10;55.60;;;;;;2319282;53;22131;-66
2022/04/06 07:51:31;;;;;;;4.65;2.00;;;15.20;55.60;;;;;;2330567;54;20928;-66
2022/04/06 07:53:58;;;;;;;4.22;2.00;;;15.20;55.50;;;;;;2331267;53;21016;-66
2022/04/06 07:56:24;;;;;;;4.72;2.50;;;15.30;55.50;;;;;;2336285;54;21067;-66
2022/04/06 07:58:52;;;;;;;4.03;2.20;;;15.30;55.50;;;;;;2330096;54;21035;-66
2022/04/06 08:01:20;;;;;;;4.90;2.42;;;15.40;55.50;;;;;;2331835;53;21011;-66
2022/04/06 08:03:46;;;;;;;5.00;2.50;;;15.40;55.40;;;;;;2330080;54;20959;-66
2022/04/06 08:06:12;;;;;;;4.20;2.40;;;15.50;55.50;;;;;;2330220;54;20941;-66
2022/04/06 08:08:39;;;;;;;5.18;2.20;;;15.50;55.40;;;;;;2330227;54;20920;-67
2022/04/06 08:11:05;;;;;;;4.15;2.17;;;15.60;55.30;;;;;;2330135;54;20932;-67
2022/04/06 08:13:34;;;;;;;5.07;2.35;;;15.60;55.20;;;;;;2328555;53;20936;-66
2022/04/06 08:16:01;;;;;;;3.60;1.87;;;15.70;55.30;;;;;;2576195;53;21001;-66
2022/04/06 08:18:28;;;;;;;4.00;2.12;;;15.70;55.30;;;;;;2330854;53;21055;-66
2022/04/06 08:20:57;;;;;;;3.78;1.90;;;15.80;55.40;;;;;;2328942;53;20932;-66
2022/04/06 08:23:23;;;;;;;5.18;2.50;;;15.70;55.10;;;;;;2374238;53;22020;-66
2022/04/06 08:25:53;;;;;;;3.90;1.83;;;15.90;55.10;;;;;;2326748;53;21070;-66
2022/04/06 08:28:20;;;;;;;3.80;1.85;;;15.90;55.00;;;;;;2321773;53;20976;-66
2022/04/06 08:30:47;;;;;;;5.10;1.58;;;16.00;55.00;;;;;;2328556;53;20917;-67
2022/04/06 08:33:16;;;;;;;3.65;1.75;;;16.00;55.00;;;;;;2329657;53;20957;-67
2022/04/06 08:35:44;;;;;;;3.47;1.40;;;16.10;55.10;;;;;;2329756;54;20927;-67
2022/04/06 08:38:14;;;;;;;3.00;1.50;;;16.10;55.10;;;;;;2330151;54;20948;-66
2022/04/06 08:40:43;;;;;;;4.00;1.83;;;16.30;55.20;;;;;;2330210;54;20980;-66
2022/04/06 08:43:10;;;;;;;3.60;1.55;;;16.30;55.10;;;;;;2329959;53;21099;-66
2022/04/06 08:45:37;;;;;;;3.47;1.62;;;16.50;55.30;;;;;;2336749;54;20992;-66
2022/04/06 08:48:07;;;;;;;3.50;1.75;;;16.60;54.90;;;;;;2323733;53;22025;-66
2022/04/06 08:50:35;;;;;;;3.62;1.80;;;16.70;54.50;;;;;;2330129;54;20928;-66
2022/04/06 08:53:04;;;;;;;4.22;1.37;;;16.70;55.00;;;;;;2332987;53;20968;-66
2022/04/06 08:55:30;;;;;;;3.90;1.30;;;16.80;54.30;;;;;;2330067;53;21388;-67
2022/04/06 08:57:57;;;;;;;4.78;1.10;;;16.90;54.20;;;;;;2330250;54;21023;-67
2022/04/06 09:00:24;;;;;;;2.08;0.85;;;16.90;53.90;;;;;;2329927;54;21000;-66
2022/04/06 09:02:50;;;;;;;3.40;1.08;;;16.90;53.90;;;;;;2333289;53;20964;-68
2022/04/06 09:05:20;;;;;;;1.83;0.75;;;17.00;53.90;;;;;;2330238;54;21008;-66
2022/04/06 09:07:51;;;;;;;2.47;1.05;;;17.00;54.00;;;;;;2370636;53;20984;-66
2022/04/06 09:10:34;;;;;;;2.37;0.83;;;17.10;54.00;;;;;;2328501;53;20929;-68
2022/04/06 09:13:26;;;;;;;1.98;0.80;;;17.20;53.80;;;;;;2329382;54;21932;-68
2022/04/06 09:15:58;;;;;;;1.92;0.70;;;17.30;53.70;;;;;;2513528;53;20942;-67
2022/04/06 09:18:40;;;;;;;2.55;0.93;;;17.30;53.80;;;;;;2325046;53;21085;-69
2022/04/06 09:21:09;;;;;;;2.22;0.90;;;17.40;53.70;;;;;;2333528;53;21580;-67
2022/04/06 09:23:37;;;;;;;1.98;0.90;;;17.50;53.70;;;;;;2536368;53;20932;-66
2022/04/06 09:26:08;;;;;;;1.70;0.70;;;17.60;53.60;;;;;;2333516;53;22005;-66
2022/04/06 09:28:42;;;;;;;4.15;1.27;;;17.70;53.30;;;;;;2331427;53;20948;-69
2022/04/06 09:31:12;;;;;;;2.37;0.80;;;17.70;53.00;;;;;;2334479;53;21019;-68
2022/04/06 09:33:41;;;;;;;4.50;1.05;;;17.80;52.70;;;;;;2340597;53;21015;-67
2022/04/06 09:36:18;;;;;;;2.40;0.90;;;17.80;52.60;;;;;;2334720;53;22069;-68
2022/04/06 09:38:49;;;;;;;2.78;1.10;;;17.80;52.50;;;;;;2543938;53;20969;-66
2022/04/06 09:41:18;;;;;;;3.42;1.20;;;17.80;52.70;;;;;;2312260;54;21100;-67
2022/04/06 09:43:48;;;;;;;3.12;1.00;;;17.90;53.00;;;;;;2570623;53;20936;-67
2022/04/06 09:49:10;;;;;;;1.85;0.68;;;18.10;52.80;;;;;;2330380;53;20992;-66
2022/04/06 09:51:37;;;;;;;3.03;1.10;;;18.30;53.10;;;;;;2326810;53;21011;-66
2022/04/06 09:54:06;;;;;;;3.30;0.90;;;18.40;53.20;;;;;;2573898;53;21063;-67
2022/04/06 09:56:33;;;;;;;2.65;1.10;;;18.50;53.10;;;;;;2330104;53;21434;-66
2022/04/06 09:59:02;;;;;;;2.12;0.80;;;18.70;52.90;;;;;;2332936;53;20944;-69
2022/04/06 10:01:32;;;;;;;2.22;0.70;;;18.80;52.40;;;;;;2395606;53;20948;-69
2022/04/06 10:04:02;;;;;;;2.08;0.90;;;18.90;52.10;;;;;;2330606;53;20964;-69
2022/04/06 10:06:34;;;;;;;1.40;0.65;;;19.00;51.80;;;;;;2332996;53;21985;-67
2022/04/06 10:09:10;;;;;;;2.50;1.00;;;19.00;51.70;;;;;;2329889;54;21503;-66
2022/04/06 10:11:37;;;;;;;2.20;1.00;;;19.10;51.90;;;;;;2330151;54;20948;-67
2022/04/06 10:14:08;;;;;;;1.80;0.70;;;19.30;52.10;;;;;;2574399;53;20920;-66
2022/04/06 10:16:36;;;;;;;1.80;0.73;;;19.30;51.60;;;;;;2337608;53;21084;-67
2022/04/06 10:19:05;;;;;;;1.77;0.77;;;19.40;51.30;;;;;;2313886;53;21016;-68
2022/04/06 10:21:53;;;;;;;2.70;1.10;;;19.40;51.00;;;;;;2330261;54;20932;-67
2022/04/06 10:26:54;;;;;;;2.42;0.80;;;19.40;50.20;;;;;;2333121;53;20952;-68
2022/04/06 10:29:25;;;;;;;1.80;0.60;;;19.40;50.00;;;;;;2436418;53;20935;-67
2022/04/06 10:31:51;;;;;;;1.77;0.85;;;19.40;50.60;;;;;;2329831;54;20992;-68
2022/04/06 10:34:30;;;;;;;1.80;0.60;;;19.30;50.50;;;;;;2333573;53;20927;-66
2022/04/06 10:37:10;;;;;;;1.90;0.70;;;19.40;50.70;;;;;;2330056;54;21027;-66
2022/04/06 10:43:27;;;;;;;2.08;0.90;;;19.40;51.30;;;;;;2330047;54;21036;-69
2022/04/06 10:45:53;;;;;;;;;;;19.70;50.40;;;;;;2337145;53;20953;-68
2022/04/06 10:48:20;;;;;;;1.60;0.52;;;19.70;50.30;;;;;;2329995;53;20063;-67
2022/04/06 10:50:48;;;;;;;2.20;0.90;;;19.70;50.10;;;;;;2328606;54;21047;-67
2022/04/06 10:53:47;;;;;;;2.92;1.23;;;19.70;49.50;;;;;;2484989;53;20956;-67
2022/04/06 10:56:16;;;;;;;2.75;1.10;;;19.70;49.10;;;;;;2326477;53;21098;-66
2022/04/06 11:00:39;;;;;;;3.83;1.90;;;19.60;49.30;;;;;;2333081;53;21921;-69
2022/04/06 11:03:18;;;;;;;2.67;1.12;;;19.50;48.90;;;;;;2329923;54;20944;-67
2022/04/06 11:05:47;;;;;;;2.15;0.98;;;19.50;48.80;;;;;;2576592;53;21052;-68
2022/04/06 11:10:25;;;;;;;2.25;0.85;;;19.40;49.10;;;;;;2579214;53;21023;-67
2022/04/06 11:13:08;;;;;;;1.77;0.65;;;19.40;48.90;;;;;;2332592;53;20948;-68
2022/04/06 11:15:41;;;;;;;2.10;0.82;;;19.40;50.60;;;;;;2333599;53;20969;-67
2022/04/06 11:18:47;;;;;;;2.17;0.82;;;19.50;50.20;;;;;;2317150;53;20987;-67
2022/04/06 11:21:14;;;;;;;6.95;2.83;;;19.50;49.30;;;;;;2333279;53;20976;-66
2022/04/06 11:23:41;;;;;;;9.07;3.87;;;19.60;49.60;;;;;;2333373;53;20983;-67
2022/04/06 11:26:08;;;;;;;47.13;17.80;;;19.60;49.50;;;;;;2369779;53;21071;-67
2022/04/06 11:28:34;;;;;;;29.90;12.27;;;19.60;49.30;;;;;;2318433;54;20944;-69
2022/04/06 11:31:02;;;;;;;19.55;7.37;;;19.50;49.20;;;;;;2330788;54;21897;-66
2022/04/06 11:33:42;;;;;;;20.12;7.82;;;19.50;49.00;;;;;;2329948;54;20936;-67
2022/04/06 11:36:17;;;;;;;19.90;7.95;;;19.40;48.80;;;;;;2333567;54;20948;-67
2022/04/06 11:38:48;;;;;;;14.68;5.68;;;19.40;48.70;;;;;;2510818;53;20932;-67
2022/04/06 11:41:18;;;;;;;10.25;4.15;;;19.30;48.70;;;;;;2329657;54;21965;-69
2022/04/06 11:43:46;;;;;;;7.30;3.25;;;19.20;48.70;;;;;;2329710;54;21912;-68
2022/04/06 11:46:12;;;;;;;4.62;1.92;;;19.10;48.70;;;;;;2329738;54;21480;-67
2022/04/06 11:48:45;;;;;;;3.62;1.50;;;19.00;48.70;;;;;;2408145;53;21000;-68
2022/04/06 11:51:12;;;;;;;3.85;1.30;;;19.00;48.70;;;;;;2573405;53;21379;-67
2022/04/06 11:53:39;;;;;;;2.53;0.90;;;18.90;48.70;;;;;;2332682;53;21489;-67
2022/04/06 11:56:05;;;;;;;1.73;0.80;;;18.80;48.70;;;;;;2311972;53;21000;-67
2022/04/06 11:58:38;;;;;;;1.15;0.55;;;18.80;48.80;;;;;;2334606;53;20961;-67
2022/04/06 12:01:16;;;;;;;1.85;0.68;;;18.70;48.80;;;;;;2565751;52;20916;-67
2022/04/06 12:03:46;;;;;;;2.15;0.90;;;18.70;49.50;;;;;;2339047;53;21467;-67
2022/04/06 12:06:16;;;;;;;1.45;0.65;;;18.70;49.20;;;;;;2330885;53;21537;-67
2022/04/06 12:08:45;;;;;;;1.90;0.70;;;18.60;49.20;;;;;;2338130;53;20960;-66
2022/04/06 12:11:12;;;;;;;1.98;0.62;;;18.60;49.20;;;;;;2309233;54;20957;-67
2022/04/06 12:13:39;;;;;;;2.17;0.75;;;18.60;49.20;;;;;;2329129;54;21483;-67
2022/04/06 12:16:06;;;;;;;1.52;0.73;;;18.60;49.30;;;;;;2329235;54;21048;-67
2022/04/06 12:18:32;;;;;;;1.75;0.80;;;18.60;49.40;;;;;;2573480;53;20956;-66
2022/04/06 12:20:59;;;;;;;1.65;0.70;;;18.60;49.50;;;;;;2328929;54;21940;-67
2022/04/06 12:23:26;;;;;;;1.55;0.65;;;18.60;49.50;;;;;;2330005;53;20936;-67
2022/04/06 12:25:56;;;;;;;1.73;0.70;;;18.60;49.50;;;;;;2543680;52;20965;-67
2022/04/06 12:28:36;;;;;;;1.33;0.62;;;18.60;49.50;;;;;;2321445;53;20975;-68
2022/04/06 12:31:04;;;;;;;3.95;0.88;;;18.70;49.60;;;;;;2329391;53;22008;-68
2022/04/06 12:36:14;;;;;;;1.85;0.77;;;18.70;49.70;;;;;;2571774;53;21044;-67
2022/04/06 12:38:42;;;;;;;2.50;0.98;;;18.80;49.70;;;;;;2330462;53;20972;-67
2022/04/06 12:41:12;;;;;;;3.33;1.62;;;18.80;49.80;;;;;;2329797;54;20976;-66
2022/04/06 12:43:49;;;;;;;2.90;1.10;;;18.90;49.70;;;;;;2329706;54;21890;-66
2022/04/06 12:46:37;;;;;;;2.87;1.20;;;18.90;49.70;;;;;;2336240;53;20953;-66
2022/04/06 12:49:26;;;;;;;2.87;1.10;;;19.00;49.70;;;;;;2313522;53;21062;-67
2022/04/06 12:52:22;;;;;;;2.03;0.95;;;19.00;49.80;;;;;;2327530;53;21615;-66
2022/04/06 12:54:52;;;;;;;1.27;0.60;;;19.20;49.90;;;;;;2329064;53;20964;-67
2022/04/06 12:57:29;;;;;;;1.75;0.70;;;19.30;50.00;;;;;;2536996;53;21039;-66
2022/04/06 12:59:59;;;;;;;2.50;0.80;;;19.40;49.80;;;;;;2329116;54;21954;-67
2022/04/06 13:02:33;;;;;;;1.62;0.73;;;19.40;49.50;;;;;;2329211;54;21440;-67
2022/04/06 13:05:06;;;;;;;2.78;0.68;;;19.50;49.10;;;;;;2329140;54;21468;-65
2022/04/06 13:07:34;;;;;;;1.62;0.75;;;19.50;49.00;;;;;;2329226;54;21007;-67
2022/04/06 13:10:09;;;;;;;1.52;0.70;;;19.60;49.10;;;;;;2329235;54;22134;-68
2022/04/06 13:12:36;;;;;;;1.52;0.60;;;19.60;49.10;;;;;;2329516;54;21060;-66
2022/04/06 13:15:03;;;;;;;1.50;0.60;;;19.70;49.40;;;;;;2329432;54;20956;-66